createdAt,value
2022-09-09T00:00:01.295Z,89.9
2022-09-09T00:01:06.629Z,90
2022-09-09T00:02:01.205Z,90
2022-09-09T00:03:01.239Z,90
2022-09-09T00:04:03.847Z,89.9
2022-09-09T00:05:02.927Z,89.5
2022-09-09T00:06:09.065Z,89.4
2022-09-09T00:07:01.126Z,89
2022-09-09T00:08:01.145Z,88.1
2022-09-09T00:09:01.160Z,87.9
2022-09-09T00:10:01.759Z,88.1
2022-09-09T00:11:13.300Z,88.4
2022-09-09T00:12:02.078Z,88.4
2022-09-09T00:13:01.975Z,88.8
2022-09-09T00:14:01.997Z,88.6
2022-09-09T00:15:01.079Z,88.7
2022-09-09T00:16:15.919Z,88.9
2022-09-09T00:17:02.113Z,89.3
2022-09-09T00:18:01.114Z,89.2
2022-09-09T00:19:00.680Z,88.8
2022-09-09T00:20:00.218Z,89
2022-09-09T00:20:59.777Z,89.3
2022-09-09T00:22:01.691Z,89.4
2022-09-09T00:23:01.436Z,89.4
2022-09-09T00:24:02.010Z,89.4
2022-09-09T00:25:01.107Z,89.9
2022-09-09T00:26:01.147Z,90.1
2022-09-09T00:27:01.072Z,90.1
2022-09-09T00:28:01.073Z,90.2
2022-09-09T00:29:01.028Z,90
2022-09-09T00:30:01.074Z,90.4
2022-09-09T00:31:01.111Z,90.3
2022-09-09T00:32:01.092Z,90.2
2022-09-09T00:33:01.219Z,90.2
2022-09-09T00:34:01.042Z,90.6
2022-09-09T00:35:01.125Z,90.6
2022-09-09T00:36:01.166Z,90.9
2022-09-09T00:37:01.045Z,91.2
2022-09-09T00:38:01.211Z,91.3
2022-09-09T00:39:01.044Z,91.1
2022-09-09T00:40:01.180Z,91.1
2022-09-09T00:41:01.695Z,90.9
2022-09-09T00:42:01.354Z,90.7
2022-09-09T00:43:02.093Z,90.6
2022-09-09T00:44:02.499Z,90.6
2022-09-09T00:45:01.455Z,90.6
2022-09-09T00:46:01.240Z,90.5
2022-09-09T00:47:01.093Z,90.4
2022-09-09T00:48:01.106Z,90.3
2022-09-09T00:49:01.099Z,90.6
2022-09-09T00:50:01.497Z,90.6
2022-09-09T00:51:01.110Z,90.6
2022-09-09T00:52:01.501Z,90.6
2022-09-09T00:53:01.176Z,90.6
2022-09-09T00:54:01.244Z,90.6
2022-09-09T00:55:01.137Z,90.6
2022-09-09T00:56:01.039Z,90.6
2022-09-09T00:57:01.065Z,90.6
2022-09-09T00:58:01.075Z,90.6
2022-09-09T00:59:01.063Z,90.5
2022-09-09T01:00:01.077Z,90.3
2022-09-09T01:01:01.566Z,90.1
2022-09-09T01:02:01.078Z,90.2
2022-09-09T01:03:01.104Z,90.2
2022-09-09T01:04:01.032Z,90.2
2022-09-09T01:05:01.116Z,90
2022-09-09T01:06:01.103Z,90.1
2022-09-09T01:07:01.117Z,89.9
2022-09-09T01:08:01.143Z,90
2022-09-09T01:09:00.893Z,90
2022-09-09T01:10:01.514Z,90
2022-09-09T01:11:01.043Z,90.1
2022-09-09T01:12:01.054Z,89.8
2022-09-09T01:13:01.074Z,89.6
2022-09-09T01:14:00.967Z,89.7
2022-09-09T01:15:01.074Z,89.7
2022-09-09T01:16:02.053Z,89.1
2022-09-09T01:17:01.491Z,89.3
2022-09-09T01:18:01.213Z,88.8
2022-09-09T01:19:02.765Z,88.5
2022-09-09T01:20:01.940Z,88.3
2022-09-09T01:21:01.396Z,87.4
2022-09-09T01:22:02.585Z,86.9
2022-09-09T01:23:01.135Z,86.8
2022-09-09T01:24:01.140Z,87.3
2022-09-09T01:25:01.172Z,87.1
2022-09-09T01:26:01.182Z,86.3
2022-09-09T01:27:01.044Z,86.2
2022-09-09T01:28:01.058Z,85.9
2022-09-09T01:29:01.053Z,86.3
2022-09-09T01:30:01.059Z,86.6
2022-09-09T01:31:01.345Z,86.1
2022-09-09T01:32:01.069Z,85.9
2022-09-09T01:33:01.096Z,85.3
2022-09-09T01:34:01.271Z,85.4
2022-09-09T01:35:01.118Z,84.8
2022-09-09T01:36:01.155Z,85.1
2022-09-09T01:37:01.124Z,83.9
2022-09-09T01:38:01.160Z,84.4
2022-09-09T01:39:01.150Z,83.7
2022-09-09T01:40:01.158Z,82.7
2022-09-09T01:41:01.134Z,82.8
2022-09-09T01:42:04.955Z,82.3
2022-09-09T01:43:01.159Z,81.8
2022-09-09T01:44:01.048Z,81.7
2022-09-09T01:45:01.061Z,80.9
2022-09-09T01:46:01.429Z,79.2
2022-09-09T01:47:06.853Z,79.4
2022-09-09T01:48:01.098Z,79.4
2022-09-09T01:49:01.087Z,78.8
2022-09-09T01:50:01.035Z,77.2
2022-09-09T01:51:01.117Z,76.8
2022-09-09T01:52:09.216Z,77.1
2022-09-09T01:53:01.058Z,77.2
2022-09-09T01:54:01.060Z,76.6
2022-09-09T01:55:01.509Z,76.5
2022-09-09T01:56:01.241Z,76.9
2022-09-09T01:57:12.821Z,76.3
2022-09-09T01:58:01.727Z,76.2
2022-09-09T01:59:01.763Z,76
2022-09-09T02:00:01.349Z,75.3
2022-09-09T02:01:02.622Z,73.3
2022-09-09T02:02:15.957Z,73.6
2022-09-09T02:03:01.481Z,72.8
2022-09-09T02:04:01.091Z,72.9
2022-09-09T02:05:01.083Z,71.9
2022-09-09T02:06:01.121Z,70.8
2022-09-09T02:07:01.110Z,70.8
2022-09-09T02:08:01.116Z,70.1
2022-09-09T02:09:01.117Z,69.8
2022-09-09T02:10:00.802Z,69.8
2022-09-09T02:11:00.514Z,69.3
2022-09-09T02:12:00.493Z,69.4
2022-09-09T02:13:00.262Z,70.1
2022-09-09T02:13:59.935Z,68.8
2022-09-09T02:14:59.515Z,66.1
2022-09-09T02:16:01.095Z,66.1
2022-09-09T02:17:01.115Z,65.8
2022-09-09T02:18:01.082Z,63.8
2022-09-09T02:19:01.083Z,64.6
2022-09-09T02:20:01.493Z,64.3
2022-09-09T02:21:01.088Z,63.6
2022-09-09T02:22:01.098Z,63.4
2022-09-09T02:23:01.194Z,63.5
2022-09-09T02:24:00.730Z,63
2022-09-09T02:25:00.307Z,63.5
2022-09-09T02:25:59.894Z,63.9
2022-09-09T02:26:59.483Z,63
2022-09-09T02:28:02.163Z,63.5
2022-09-09T02:29:01.081Z,62.8
2022-09-09T02:30:00.725Z,62.9
2022-09-09T02:31:00.401Z,61.6
2022-09-09T02:32:00.148Z,61.2
2022-09-09T02:32:59.834Z,60.5
2022-09-09T02:34:01.467Z,60.2
2022-09-09T02:35:01.078Z,60.2
2022-09-09T02:36:01.085Z,60.1
2022-09-09T02:37:01.090Z,59.7
2022-09-09T02:38:01.118Z,59.6
2022-09-09T02:39:01.104Z,59.3
2022-09-09T02:40:01.167Z,57.3
2022-09-09T02:41:01.117Z,56.4
2022-09-09T02:42:01.029Z,56.5
2022-09-09T02:43:01.536Z,56.9
2022-09-09T02:44:01.263Z,57
2022-09-09T02:45:01.054Z,57
2022-09-09T02:46:01.167Z,56.8
2022-09-09T02:47:01.056Z,57.3
2022-09-09T02:48:01.078Z,57.2
2022-09-09T02:49:01.064Z,57.3
2022-09-09T02:50:01.066Z,57.7
2022-09-09T02:51:01.087Z,57.6
2022-09-09T02:52:01.094Z,57.9
2022-09-09T02:53:01.502Z,58.6
2022-09-09T02:54:02.103Z,58.2
2022-09-09T02:55:01.106Z,58.3
2022-09-09T02:56:01.111Z,57.4
2022-09-09T02:57:01.120Z,57.9
2022-09-09T02:58:01.139Z,57.9
2022-09-09T02:59:01.145Z,58.3
2022-09-09T03:00:01.445Z,58.8
2022-09-09T03:01:01.628Z,59.3
2022-09-09T03:02:01.294Z,59.1
2022-09-09T03:03:01.284Z,58.3
2022-09-09T03:04:01.953Z,58.2
2022-09-09T03:05:01.939Z,58.1
2022-09-09T03:06:01.464Z,57.7
2022-09-09T03:07:02.083Z,57.5
2022-09-09T03:08:01.047Z,57.3
2022-09-09T03:09:01.044Z,57.3
2022-09-09T03:10:01.050Z,56.3
2022-09-09T03:11:01.116Z,56.1
2022-09-09T03:12:01.135Z,55.7
2022-09-09T03:13:01.127Z,55.6
2022-09-09T03:14:01.518Z,56.1
2022-09-09T03:15:01.564Z,56.1
2022-09-09T03:16:01.104Z,55.5
2022-09-09T03:17:01.067Z,55.4
2022-09-09T03:18:03.517Z,55.4
2022-09-09T03:19:01.060Z,56.1
2022-09-09T03:20:01.072Z,56.5
2022-09-09T03:21:01.084Z,55.6
2022-09-09T03:22:01.095Z,55.8
2022-09-09T03:23:06.194Z,55.6
2022-09-09T03:24:01.098Z,55.1
2022-09-09T03:25:01.099Z,55.4
2022-09-09T03:26:01.109Z,54.4
2022-09-09T03:27:01.119Z,54.1
2022-09-09T03:28:09.271Z,53.7
2022-09-09T03:29:00.707Z,52.8
2022-09-09T03:30:00.242Z,53.4
2022-09-09T03:30:59.819Z,53
2022-09-09T03:32:01.756Z,52.9
2022-09-09T03:33:10.832Z,53.6
2022-09-09T03:34:01.939Z,52.8
2022-09-09T03:35:02.885Z,52.3
2022-09-09T03:36:01.164Z,51.8
2022-09-09T03:37:01.079Z,51.6
2022-09-09T03:38:13.649Z,52
2022-09-09T03:39:01.097Z,51.7
2022-09-09T03:40:01.153Z,51.8
2022-09-09T03:41:01.101Z,51.1
2022-09-09T03:42:01.102Z,50.8
2022-09-09T03:43:16.237Z,50.7
2022-09-09T03:44:01.123Z,51
2022-09-09T03:45:01.050Z,50.7
2022-09-09T03:46:01.215Z,50.6
2022-09-09T03:47:01.051Z,50.8
2022-09-09T03:48:01.061Z,51
2022-09-09T03:49:01.046Z,51.8
2022-09-09T03:50:01.029Z,52
2022-09-09T03:51:01.423Z,52.3
2022-09-09T03:52:01.093Z,52.3
2022-09-09T03:53:01.106Z,52.4
2022-09-09T03:54:01.093Z,52.6
2022-09-09T03:55:01.083Z,52.2
2022-09-09T03:56:01.200Z,52.5
2022-09-09T03:57:01.522Z,52.6
2022-09-09T03:58:01.735Z,53.1
2022-09-09T03:59:02.544Z,53.4
2022-09-09T04:00:01.421Z,53.3
2022-09-09T04:01:02.014Z,53.7
2022-09-09T04:02:01.403Z,53.8
2022-09-09T04:03:01.310Z,54
2022-09-09T04:04:01.425Z,54.2
2022-09-09T04:05:01.957Z,54.2
2022-09-09T04:06:01.327Z,54.6
2022-09-09T04:07:01.490Z,54.8
2022-09-09T04:08:01.092Z,54.6
2022-09-09T04:09:01.099Z,54.3
2022-09-09T04:10:01.095Z,54.7
2022-09-09T04:11:01.104Z,55.1
2022-09-09T04:12:01.104Z,55.5
2022-09-09T04:13:01.153Z,55.1
2022-09-09T04:14:01.513Z,55.6
2022-09-09T04:15:01.153Z,55.9
2022-09-09T04:16:01.215Z,56.4
2022-09-09T04:17:01.145Z,56.4
2022-09-09T04:18:01.285Z,56.1
2022-09-09T04:19:01.052Z,56.8
2022-09-09T04:20:01.061Z,57.3
2022-09-09T04:21:01.445Z,57.3
2022-09-09T04:22:01.191Z,57.5
2022-09-09T04:23:01.299Z,57.3
2022-09-09T04:24:01.074Z,57.8
2022-09-09T04:25:01.061Z,57.8
2022-09-09T04:26:01.099Z,57.7
2022-09-09T04:27:01.152Z,57.8
2022-09-09T04:28:01.126Z,57.7
2022-09-09T04:29:01.508Z,57.8
2022-09-09T04:30:00.637Z,57.9
2022-09-09T04:31:00.432Z,58.4
2022-09-09T04:32:00.289Z,57.9
2022-09-09T04:32:59.895Z,57.4
2022-09-09T04:33:59.778Z,57.3
2022-09-09T04:35:01.825Z,57.2
2022-09-09T04:36:01.561Z,57.2
2022-09-09T04:37:01.211Z,57.5
2022-09-09T04:38:01.309Z,57.4
2022-09-09T04:39:01.428Z,57.4
2022-09-09T04:40:01.122Z,57.5
2022-09-09T04:41:02.255Z,58.1
2022-09-09T04:42:01.112Z,57.8
2022-09-09T04:43:01.165Z,57.8
2022-09-09T04:44:01.494Z,57.5
2022-09-09T04:45:01.156Z,57.3
2022-09-09T04:46:01.190Z,57.1
2022-09-09T04:47:01.920Z,56.6
2022-09-09T04:48:01.273Z,56.7
2022-09-09T04:49:01.145Z,56.9
2022-09-09T04:50:02.116Z,57.2
2022-09-09T04:51:01.304Z,57.5
2022-09-09T04:52:01.201Z,58
2022-09-09T04:53:01.799Z,58.9
2022-09-09T04:54:01.081Z,59.1
2022-09-09T04:55:01.579Z,58.9
2022-09-09T04:56:01.229Z,58.4
2022-09-09T04:57:00.918Z,55.5
2022-09-09T04:58:00.591Z,52.1
2022-09-09T04:59:03.830Z,47.4
2022-09-09T05:00:01.727Z,42.1
2022-09-09T05:01:01.522Z,40.4
2022-09-09T05:02:01.187Z,37
2022-09-09T05:03:01.411Z,35.2
2022-09-09T05:04:05.412Z,32.4
2022-09-09T05:05:02.061Z,31.7
2022-09-09T05:06:01.052Z,29.6
2022-09-09T05:07:01.055Z,26.8
2022-09-09T05:08:01.057Z,25.3
2022-09-09T05:09:09.563Z,23.5
2022-09-09T05:10:01.074Z,21
2022-09-09T05:11:01.075Z,19.7
2022-09-09T05:12:01.085Z,18.6
2022-09-09T05:13:01.105Z,17.3
2022-09-09T05:14:11.375Z,16.4
2022-09-09T05:15:01.505Z,15.8
2022-09-09T05:16:01.140Z,14.5
2022-09-09T05:17:01.115Z,13.5
2022-09-09T05:18:01.137Z,12.9
2022-09-09T05:19:14.132Z,11.7
2022-09-09T05:20:01.028Z,10.7
2022-09-09T05:21:01.068Z,10.9
2022-09-09T05:22:00.738Z,10.9
2022-09-09T05:23:00.339Z,10.5
2022-09-09T05:24:00.217Z,10.7
2022-09-09T05:24:59.831Z,11
2022-09-09T05:26:02.512Z,11.3
2022-09-09T05:27:01.109Z,11.8
2022-09-09T05:28:01.103Z,12.3
2022-09-09T05:29:01.129Z,12.9
2022-09-09T05:30:00.701Z,13.5
2022-09-09T05:31:00.428Z,14.5
2022-09-09T05:32:00.216Z,15.2
2022-09-09T05:32:59.802Z,16
2022-09-09T05:34:01.431Z,16.8
2022-09-09T05:35:01.065Z,17.3
2022-09-09T05:36:01.139Z,17.9
2022-09-09T05:37:01.041Z,19
2022-09-09T05:38:01.053Z,19.5
2022-09-09T05:39:01.082Z,19.6
2022-09-09T05:40:01.101Z,19.1
2022-09-09T05:41:03.951Z,18.3
2022-09-09T05:42:00.662Z,17.9
2022-09-09T05:43:00.375Z,17.7
2022-09-09T05:44:00.070Z,17.7
2022-09-09T05:45:00.391Z,17.6
2022-09-09T05:45:59.979Z,17.5
2022-09-09T05:46:59.696Z,17.6
2022-09-09T05:48:01.461Z,18
2022-09-09T05:49:02.826Z,18.2
2022-09-09T05:50:00.831Z,18.8
2022-09-09T05:51:00.414Z,19.3
2022-09-09T05:52:00.008Z,19.9
2022-09-09T05:52:59.600Z,20.5
2022-09-09T05:54:02.279Z,21.8
2022-09-09T05:55:01.153Z,22.6
2022-09-09T05:56:02.192Z,23.4
2022-09-09T05:57:02.012Z,24.5
2022-09-09T05:58:01.111Z,26.1
2022-09-09T05:59:01.247Z,26.3
2022-09-09T06:00:01.026Z,26.4
2022-09-09T06:01:01.106Z,26.3
2022-09-09T06:02:00.788Z,27
2022-09-09T06:03:00.639Z,27.3
2022-09-09T06:04:00.309Z,27.6
2022-09-09T06:05:00.694Z,28.4
2022-09-09T06:06:01.151Z,28.6
2022-09-09T06:07:01.298Z,30
2022-09-09T06:08:01.042Z,31.3
2022-09-09T06:09:01.061Z,31.2
2022-09-09T06:10:01.076Z,31.7
2022-09-09T06:11:01.050Z,32
2022-09-09T06:12:01.070Z,32
2022-09-09T06:13:01.073Z,33.3
2022-09-09T06:14:01.111Z,33.3
2022-09-09T06:15:01.471Z,33.2
2022-09-09T06:16:01.156Z,33.4
2022-09-09T06:17:01.095Z,33.8
2022-09-09T06:18:01.106Z,34.1
2022-09-09T06:19:01.129Z,33.9
2022-09-09T06:20:00.694Z,34.3
2022-09-09T06:21:00.429Z,33.4
2022-09-09T06:22:00.269Z,33.4
2022-09-09T06:22:59.921Z,33.2
2022-09-09T06:24:01.266Z,33
2022-09-09T06:25:01.062Z,32.9
2022-09-09T06:26:01.060Z,32.3
2022-09-09T06:27:01.066Z,32.6
2022-09-09T06:28:01.067Z,32
2022-09-09T06:29:01.383Z,32.3
2022-09-09T06:30:01.211Z,32.8
2022-09-09T06:31:01.709Z,33.2
2022-09-09T06:32:01.143Z,32.1
2022-09-09T06:33:01.132Z,32.5
2022-09-09T06:34:01.129Z,31.4
2022-09-09T06:35:03.838Z,30.7
2022-09-09T06:36:01.139Z,30
2022-09-09T06:37:01.132Z,30.6
2022-09-09T06:38:01.171Z,30.7
2022-09-09T06:39:01.873Z,29.5
2022-09-09T06:40:06.492Z,31.8
2022-09-09T06:41:01.067Z,30.9
2022-09-09T06:42:00.760Z,30.2
2022-09-09T06:43:00.342Z,30.1
2022-09-09T06:43:59.946Z,30.4
2022-09-09T06:45:08.712Z,29.3
2022-09-09T06:46:01.116Z,27.1
2022-09-09T06:47:01.166Z,26.3
2022-09-09T06:48:01.260Z,26.7
2022-09-09T06:49:01.287Z,26.8
2022-09-09T06:50:12.075Z,26.7
2022-09-09T06:51:01.150Z,27.1
2022-09-09T06:52:01.351Z,28
2022-09-09T06:53:01.776Z,27.3
2022-09-09T06:54:01.488Z,25.4
2022-09-09T06:55:16.788Z,24.3
2022-09-09T06:56:02.653Z,27.6
2022-09-09T06:57:07.810Z,27.6
2022-09-09T06:58:01.067Z,26.4
2022-09-09T06:59:01.094Z,26.4
2022-09-09T07:00:01.040Z,25.6
2022-09-09T07:01:02.014Z,25.1
2022-09-09T07:02:00.730Z,24.7
2022-09-09T07:03:00.424Z,24.7
2022-09-09T07:04:00.087Z,19.8
2022-09-09T07:04:59.665Z,19.7
2022-09-09T07:06:01.802Z,21.8
2022-09-09T07:07:02.037Z,19.5
2022-09-09T07:08:01.448Z,19.7
2022-09-09T07:09:01.146Z,18.9
2022-09-09T07:10:01.162Z,18
2022-09-09T07:11:01.525Z,19.8
2022-09-09T07:12:01.192Z,20.1
2022-09-09T07:13:01.919Z,19
2022-09-09T07:14:01.472Z,18.8
2022-09-09T07:15:01.096Z,18.7
2022-09-09T07:16:01.166Z,20.3
2022-09-09T07:17:01.085Z,19.5
2022-09-09T07:18:01.098Z,18.6
2022-09-09T07:19:01.095Z,18.4
2022-09-09T07:20:01.111Z,18.3
2022-09-09T07:21:01.517Z,20
2022-09-09T07:22:01.507Z,20.9
2022-09-09T07:23:01.160Z,19.8
2022-09-09T07:24:01.154Z,18.3
2022-09-09T07:25:01.555Z,18.3
2022-09-09T07:26:01.653Z,17
2022-09-09T07:27:01.044Z,16.7
2022-09-09T07:28:01.065Z,16.4
2022-09-09T07:29:01.089Z,16.5
2022-09-09T07:30:01.113Z,18.7
2022-09-09T07:31:01.205Z,16.5
2022-09-09T07:32:01.062Z,16.1
2022-09-09T07:33:01.088Z,15.8
2022-09-09T07:34:01.103Z,15.1
2022-09-09T07:35:01.107Z,14.6
2022-09-09T07:36:01.042Z,14.8
2022-09-09T07:37:01.055Z,15
2022-09-09T07:38:01.394Z,15
2022-09-09T07:39:01.518Z,17.5
2022-09-09T07:40:02.677Z,16.4
2022-09-09T07:41:01.137Z,15.5
2022-09-09T07:42:00.742Z,14.8
2022-09-09T07:43:00.336Z,14.6
2022-09-09T07:43:59.926Z,14.8
2022-09-09T07:44:59.891Z,14.9
2022-09-09T07:45:59.555Z,14.8
2022-09-09T07:47:01.116Z,14.1
2022-09-09T07:48:01.398Z,14
2022-09-09T07:49:01.163Z,13.3
2022-09-09T07:50:01.125Z,13.3
2022-09-09T07:51:01.117Z,14.4
2022-09-09T07:52:01.233Z,15.1
2022-09-09T07:53:01.140Z,14.4
2022-09-09T07:54:01.134Z,14.3
2022-09-09T07:55:01.614Z,14.7
2022-09-09T07:56:01.542Z,13.4
2022-09-09T07:57:02.105Z,13.2
2022-09-09T07:58:01.376Z,13.4
2022-09-09T07:59:01.347Z,13.8
2022-09-09T08:00:02.008Z,13.4
2022-09-09T08:01:01.089Z,13.3
2022-09-09T08:02:00.948Z,13.4
2022-09-09T08:03:01.136Z,15.4
2022-09-09T08:04:01.090Z,14
2022-09-09T08:05:01.085Z,13.1
2022-09-09T08:06:01.118Z,13.1
2022-09-09T08:07:01.058Z,13
2022-09-09T08:08:01.144Z,12.3
2022-09-09T08:09:01.150Z,11.8
2022-09-09T08:10:01.129Z,11.7
2022-09-09T08:11:01.135Z,11.7
2022-09-09T08:12:01.143Z,13.5
2022-09-09T08:13:17.253Z,13
2022-09-09T08:14:02.539Z,11.9
2022-09-09T08:15:01.447Z,11.8
2022-09-09T08:16:02.916Z,13.5
2022-09-09T08:17:01.100Z,15.1
2022-09-09T08:18:01.096Z,13.2
2022-09-09T08:19:01.108Z,13.9
2022-09-09T08:20:01.095Z,13.3
2022-09-09T08:21:05.920Z,12.2
2022-09-09T08:22:01.125Z,12.2
2022-09-09T08:23:01.510Z,12.5
2022-09-09T08:24:03.878Z,13.7
2022-09-09T08:25:01.805Z,13.7
2022-09-09T08:26:08.607Z,14.3
2022-09-09T08:27:01.426Z,13.9
2022-09-09T08:28:02.592Z,13.9
2022-09-09T08:29:02.522Z,11.8
2022-09-09T08:30:01.928Z,11.7
2022-09-09T08:31:11.824Z,11.9
2022-09-09T08:32:01.971Z,11.9
2022-09-09T08:33:01.090Z,13.9
2022-09-09T08:34:01.073Z,13.1
2022-09-09T08:35:01.488Z,12.4
2022-09-09T08:36:17.323Z,11.8
2022-09-09T08:37:01.789Z,11.5
2022-09-09T08:38:01.524Z,11.9
2022-09-09T08:39:01.133Z,12.6
2022-09-09T08:40:01.254Z,12.2
2022-09-09T08:41:15.584Z,11.8
2022-09-09T08:42:02.241Z,11.8
2022-09-09T08:43:01.562Z,11.6
2022-09-09T08:44:01.851Z,11.6
2022-09-09T08:45:01.752Z,11.5
2022-09-09T08:46:00.304Z,12.6
2022-09-09T08:46:59.925Z,11.5
2022-09-09T08:47:59.527Z,11.4
2022-09-09T08:49:01.089Z,11.2
2022-09-09T08:50:01.789Z,11.7
2022-09-09T08:51:01.196Z,11.9
2022-09-09T08:52:01.107Z,10.9
2022-09-09T08:53:01.113Z,12.4
2022-09-09T08:54:01.070Z,11
2022-09-09T08:55:01.030Z,9.8
2022-09-09T08:56:01.039Z,9.5
2022-09-09T08:57:01.140Z,10.8
2022-09-09T08:58:01.539Z,11.5
2022-09-09T08:59:01.386Z,10.5
2022-09-09T09:00:02.225Z,10.5
2022-09-09T09:01:01.057Z,9.9
2022-09-09T09:02:01.119Z,9.9
2022-09-09T09:03:01.788Z,9.7
2022-09-09T09:04:01.095Z,8.7
2022-09-09T09:05:01.201Z,8.5
2022-09-09T09:06:01.887Z,8.6
2022-09-09T09:07:01.472Z,9.4
2022-09-09T09:08:01.105Z,9
2022-09-09T09:09:01.130Z,8.8
2022-09-09T09:10:01.110Z,8.6
2022-09-09T09:11:01.116Z,8.4
2022-09-09T09:12:01.136Z,8.6
2022-09-09T09:13:01.150Z,10.3
2022-09-09T09:14:01.142Z,10.3
2022-09-09T09:15:01.866Z,9.7
2022-09-09T09:16:00.893Z,10.3
2022-09-09T09:17:00.565Z,10.2
2022-09-09T09:18:00.766Z,10.7
2022-09-09T09:19:00.339Z,9.2
2022-09-09T09:19:59.934Z,8.8
2022-09-09T09:20:59.530Z,7.5
2022-09-09T09:22:01.129Z,7.8
2022-09-09T09:23:01.307Z,7.9
2022-09-09T09:24:01.480Z,7.5
2022-09-09T09:25:01.098Z,7
2022-09-09T09:26:01.403Z,7.1
2022-09-09T09:27:02.071Z,7
2022-09-09T09:28:02.471Z,7
2022-09-09T09:29:01.134Z,7.2
2022-09-09T09:30:23.918Z,7
2022-09-09T09:31:01.300Z,8.9
2022-09-09T09:32:01.969Z,7.9
2022-09-09T09:33:02.369Z,7.3
2022-09-09T09:34:01.076Z,6.2
2022-09-09T09:35:01.083Z,5.8
2022-09-09T09:36:03.839Z,7.6
2022-09-09T09:37:01.770Z,6
2022-09-09T09:41:02.127Z,6.6
2022-09-09T09:42:05.070Z,5.6
2022-09-09T09:43:00.820Z,5.1
2022-09-09T09:44:00.406Z,5.2
2022-09-09T09:45:00.114Z,5.9
2022-09-09T09:46:17.190Z,5.9
2022-09-09T09:47:01.773Z,5.9
2022-09-09T09:48:06.692Z,5.1
2022-09-09T09:49:01.712Z,5.8
2022-09-09T09:50:01.091Z,5.2
2022-09-09T09:51:01.070Z,4.8
2022-09-09T09:52:01.082Z,4.6
2022-09-09T09:53:01.089Z,4.4
2022-09-09T09:54:01.050Z,5.1
2022-09-09T09:55:06.735Z,5
2022-09-09T09:56:01.116Z,4.6
2022-09-09T09:57:00.791Z,5.2
2022-09-09T09:58:00.714Z,5.7
2022-09-09T09:59:01.826Z,5.3
2022-09-09T10:00:01.463Z,4.9
2022-09-09T10:01:01.154Z,4.5
2022-09-09T10:02:04.216Z,4.2
2022-09-09T10:03:01.722Z,6.2
2022-09-09T10:04:01.153Z,6
2022-09-09T10:05:01.888Z,6.1
2022-09-09T10:06:01.075Z,5.5
2022-09-09T10:07:06.336Z,5
2022-09-09T10:08:01.583Z,5
2022-09-09T10:09:01.193Z,4.5
2022-09-09T10:10:01.170Z,4.3
2022-09-09T10:11:01.053Z,3.5
2022-09-09T10:12:08.542Z,3.1
2022-09-09T10:13:01.096Z,3.9
2022-09-09T10:14:01.797Z,4.2
2022-09-09T10:15:01.502Z,3.2
2022-09-09T10:16:05.394Z,2.9
2022-09-09T10:17:09.101Z,2.3
2022-09-09T10:18:01.081Z,3
2022-09-09T10:19:01.070Z,2.8
2022-09-09T10:20:01.130Z,2.6
2022-09-09T10:21:01.772Z,2.4
2022-09-09T10:22:11.706Z,3.2
2022-09-09T10:23:02.202Z,3.1
2022-09-09T10:24:01.739Z,2.6
2022-09-09T10:25:01.099Z,2.3
2022-09-09T10:26:01.097Z,1.9
2022-09-09T10:27:14.879Z,1.1
2022-09-09T10:28:05.958Z,1.2
2022-09-09T10:29:01.430Z,2
2022-09-09T10:30:01.682Z,1.8
2022-09-09T10:31:01.244Z,2.2
2022-09-09T10:32:01.131Z,1.4
2022-09-09T10:33:01.209Z,1.1
2022-09-09T10:34:02.381Z,1
2022-09-09T10:35:01.053Z,1.4
2022-09-09T10:36:01.066Z,1
2022-09-09T10:37:01.066Z,1
2022-09-09T10:38:01.474Z,1
2022-09-09T10:39:01.073Z,1
2022-09-09T10:40:01.113Z,1
2022-09-09T10:41:01.091Z,1
2022-09-09T10:42:01.103Z,1
2022-09-09T10:43:01.126Z,1
2022-09-09T10:44:01.125Z,1
2022-09-09T10:45:01.270Z,1.3
2022-09-09T10:46:01.961Z,1.3
2022-09-09T10:47:02.234Z,1
2022-09-09T10:48:01.149Z,1.3
2022-09-09T10:49:01.948Z,1.7
2022-09-09T10:50:01.451Z,1.8
2022-09-09T10:51:04.417Z,1.9
2022-09-09T10:52:01.100Z,1.9
2022-09-09T10:53:01.480Z,2.3
2022-09-09T10:54:01.079Z,2.4
2022-09-09T10:55:01.051Z,2.2
2022-09-09T10:56:01.083Z,2.5
2022-09-09T10:57:01.100Z,2.3
2022-09-09T10:58:01.119Z,2.6
2022-09-09T10:59:01.116Z,2.8
2022-09-09T11:00:01.834Z,2.5
2022-09-09T11:01:00.973Z,2.8
2022-09-09T11:02:00.677Z,3
2022-09-09T11:03:00.308Z,3.3
2022-09-09T11:04:00.037Z,3.9
2022-09-09T11:04:59.709Z,3.9
2022-09-09T11:06:01.921Z,5.5
2022-09-09T11:07:01.075Z,5.5
2022-09-09T11:08:01.074Z,5.3
2022-09-09T11:09:01.072Z,5.8
2022-09-09T11:10:01.110Z,6.6
2022-09-09T11:11:01.499Z,6.8
2022-09-09T11:12:01.219Z,7.2
2022-09-09T11:13:01.089Z,6.9
2022-09-09T11:14:01.104Z,7
2022-09-09T11:15:01.108Z,6.6
2022-09-09T11:16:01.126Z,7
2022-09-09T11:17:01.237Z,6.5
2022-09-09T11:18:02.503Z,6.9
2022-09-09T11:19:02.498Z,6.6
2022-09-09T11:20:01.460Z,6.9
2022-09-09T11:21:02.168Z,6.8
2022-09-09T11:22:01.672Z,6.5
2022-09-09T11:23:01.061Z,5.2
2022-09-09T11:24:01.111Z,4.4
2022-09-09T11:25:01.167Z,5.1
2022-09-09T11:26:01.266Z,4.5
2022-09-09T11:27:01.130Z,5
2022-09-09T11:28:01.096Z,5.1
2022-09-09T11:29:04.689Z,5.5
2022-09-09T11:30:01.513Z,5.1
2022-09-09T11:31:01.583Z,5.6
2022-09-09T11:32:01.240Z,5.4
2022-09-09T11:33:01.145Z,4.9
2022-09-09T11:34:01.849Z,4.9
2022-09-09T11:35:01.151Z,5.2
2022-09-09T11:36:04.438Z,5.4
2022-09-09T11:37:01.750Z,6.1
2022-09-09T11:38:01.059Z,6.1
2022-09-09T11:39:01.187Z,6
2022-09-09T11:40:01.550Z,7.5
2022-09-09T11:41:01.115Z,6
2022-09-09T11:42:00.901Z,5.2
2022-09-09T11:43:01.090Z,5.2
2022-09-09T11:44:01.106Z,3
2022-09-09T11:45:01.109Z,2.6
2022-09-09T11:46:01.578Z,1
2022-09-09T11:47:02.464Z,1
2022-09-09T11:48:01.741Z,1
2022-09-09T11:49:02.765Z,1
2022-09-09T11:50:02.176Z,1.3
2022-09-09T11:51:01.384Z,1
2022-09-09T11:52:01.057Z,1
2022-09-09T11:53:02.794Z,1
2022-09-09T11:54:01.739Z,1
2022-09-09T11:55:01.745Z,1
2022-09-09T11:56:01.746Z,1
2022-09-09T11:57:01.336Z,1
2022-09-09T11:58:06.139Z,1
2022-09-09T11:59:02.645Z,1
2022-09-09T12:00:01.100Z,1
2022-09-09T12:01:01.118Z,1
2022-09-09T12:02:01.457Z,1
2022-09-09T12:03:09.504Z,1
2022-09-09T12:04:02.512Z,1
2022-09-09T12:05:02.200Z,1
2022-09-09T12:06:02.811Z,1
2022-09-09T12:07:01.058Z,1
2022-09-09T12:08:13.917Z,1
2022-09-09T12:09:01.059Z,1
2022-09-09T12:10:07.792Z,1
2022-09-09T12:11:01.749Z,1
2022-09-09T12:12:01.157Z,1
2022-09-09T12:13:15.960Z,1
2022-09-09T12:14:01.473Z,1
2022-09-09T12:15:01.201Z,1
2022-09-09T12:16:02.389Z,1
2022-09-09T12:17:01.422Z,1
2022-09-09T12:18:03.480Z,1
2022-09-09T12:19:01.123Z,1
2022-09-09T12:20:01.102Z,1
2022-09-09T12:21:00.823Z,1
2022-09-09T12:22:00.435Z,1
2022-09-09T12:23:00.422Z,1
2022-09-09T12:24:00.296Z,1
2022-09-09T12:24:59.929Z,1
2022-09-09T12:25:59.629Z,1
2022-09-09T12:27:01.752Z,1
2022-09-09T12:28:01.759Z,1
2022-09-09T12:29:01.754Z,1
2022-09-09T12:30:01.937Z,1
2022-09-09T12:31:01.544Z,1
2022-09-09T12:32:02.141Z,1
2022-09-09T12:33:01.738Z,1
2022-09-09T12:34:01.517Z,1
2022-09-09T12:35:01.257Z,1
2022-09-09T12:36:02.661Z,1
2022-09-09T12:37:01.143Z,1
2022-09-09T12:38:01.049Z,1
2022-09-09T12:39:01.065Z,1
2022-09-09T12:40:02.196Z,1
2022-09-09T12:41:01.971Z,1
2022-09-09T12:42:01.172Z,1
2022-09-09T12:43:00.666Z,1
2022-09-09T12:44:00.255Z,1
2022-09-09T12:44:59.843Z,1
2022-09-09T12:46:01.939Z,1
2022-09-09T12:47:01.123Z,1
2022-09-09T12:48:01.114Z,1
2022-09-09T12:49:01.824Z,1
2022-09-09T12:50:01.123Z,1
2022-09-09T12:51:00.832Z,1
2022-09-09T12:52:01.163Z,1
2022-09-09T12:53:01.163Z,1
2022-09-09T12:54:01.055Z,1
2022-09-09T12:55:01.048Z,1
2022-09-09T12:56:01.076Z,1
2022-09-09T12:57:01.076Z,1
2022-09-09T12:58:01.075Z,1
2022-09-09T12:59:01.202Z,1
2022-09-09T13:00:01.506Z,1
2022-09-09T13:01:01.159Z,1
2022-09-09T13:02:01.264Z,1
2022-09-09T13:03:01.207Z,1
2022-09-09T13:04:01.108Z,1
2022-09-09T13:05:01.113Z,1
2022-09-09T13:06:01.120Z,1
2022-09-09T13:07:01.140Z,1
2022-09-09T13:08:01.496Z,1
2022-09-09T13:09:01.141Z,1
2022-09-09T13:10:01.054Z,1
2022-09-09T13:11:03.159Z,1
2022-09-09T13:12:01.073Z,1
2022-09-09T13:13:01.065Z,1
2022-09-09T13:14:01.075Z,1
2022-09-09T13:15:01.084Z,1
2022-09-09T13:16:01.266Z,1
2022-09-09T13:17:01.370Z,1
2022-09-09T13:18:01.213Z,1
2022-09-09T13:19:01.122Z,1
2022-09-09T13:20:01.190Z,1
2022-09-09T13:21:01.121Z,1
2022-09-09T13:22:01.239Z,1
2022-09-09T13:23:01.956Z,1
2022-09-09T13:24:01.955Z,1
2022-09-09T13:25:00.705Z,1
2022-09-09T13:26:00.435Z,1
2022-09-09T13:27:00.137Z,1
2022-09-09T13:27:59.860Z,1
2022-09-09T13:29:01.754Z,1
2022-09-09T13:30:01.749Z,1
2022-09-09T13:31:03.576Z,1
2022-09-09T13:32:01.893Z,1
2022-09-09T13:33:01.197Z,1
2022-09-09T13:34:01.954Z,1
2022-09-09T13:35:01.105Z,1
2022-09-09T13:36:01.120Z,1
2022-09-09T13:37:01.120Z,1
2022-09-09T13:38:01.137Z,1
2022-09-09T13:39:03.447Z,1
2022-09-09T13:40:01.275Z,1
2022-09-09T13:41:02.498Z,1
2022-09-09T13:42:02.074Z,1
2022-09-09T13:43:01.184Z,1